createdAt,value
2023-05-24T00:02:36.755Z,4.83
2023-05-24T00:05:22.201Z,5.44
2023-05-24T00:08:07.984Z,3.97
2023-05-24T00:10:53.482Z,5.24
2023-05-24T00:13:38.768Z,5.59
2023-05-24T00:16:24.577Z,5.22
2023-05-24T00:19:09.953Z,5.11
2023-05-24T00:21:55.366Z,4.09
2023-05-24T00:24:40.738Z,5.31
2023-05-24T00:27:25.961Z,5.22
2023-05-24T00:30:12.099Z,4.80
2023-05-24T00:32:57.541Z,5.37
2023-05-24T00:35:43.199Z,5.11
2023-05-24T00:38:28.883Z,5.61
2023-05-24T00:41:14.685Z,5.60
2023-05-24T00:44:00.341Z,5.32
2023-05-24T00:46:47.660Z,5.64
2023-05-24T00:49:34.909Z,5.24
2023-05-24T00:52:20.998Z,4.55
2023-05-24T00:55:08.746Z,5.33
2023-05-24T00:57:55.340Z,4.71
2023-05-24T01:00:43.366Z,4.48
2023-05-24T01:03:29.370Z,3.81
2023-05-24T01:06:14.947Z,5.21
2023-05-24T01:09:07.017Z,5.20
2023-05-24T01:11:58.772Z,5.07
2023-05-24T01:15:14.983Z,4.86
2023-05-24T01:18:07.367Z,4.95
2023-05-24T01:21:06.238Z,3.28
2023-05-24T01:24:23.844Z,5.01
2023-05-24T01:27:13.065Z,4.64
2023-05-24T01:29:59.993Z,5.06
2023-05-24T01:32:46.281Z,4.57
2023-05-24T01:35:31.872Z,2.39
2023-05-24T01:38:17.338Z,4.52
2023-05-24T01:41:18.079Z,5.23
2023-05-24T01:44:14.659Z,3.94
2023-05-24T01:47:28.842Z,5.08
2023-05-24T01:50:34.529Z,4.74
2023-05-24T01:53:23.177Z,4.27
2023-05-24T01:56:11.275Z,3.47
2023-05-24T01:58:57.906Z,4.55
2023-05-24T02:01:43.559Z,3.37
2023-05-24T02:04:29.363Z,4.58
2023-05-24T02:07:14.936Z,4.63
2023-05-24T02:10:00.462Z,3.97
2023-05-24T02:12:46.051Z,4.61
2023-05-24T02:15:31.916Z,3.72
2023-05-24T02:18:17.348Z,3.36
2023-05-24T02:21:03.168Z,3.80
2023-05-24T02:23:48.977Z,3.92
2023-05-24T02:26:34.409Z,3.29
2023-05-24T02:29:19.958Z,3.97
2023-05-24T02:32:05.658Z,4.52
2023-05-24T02:34:50.943Z,1.35
2023-05-24T02:37:36.459Z,3.95
2023-05-24T02:40:22.053Z,4.65
2023-05-24T02:43:07.177Z,3.76
2023-05-24T02:45:52.400Z,4.13
2023-05-24T02:48:37.823Z,4.33
2023-05-24T02:51:23.198Z,4.10
2023-05-24T02:54:09.020Z,3.48
2023-05-24T02:56:54.197Z,3.75
2023-05-24T02:59:39.761Z,3.80
2023-05-24T03:02:25.488Z,4.13
2023-05-24T03:05:11.288Z,4.74
2023-05-24T03:07:57.445Z,4.31
2023-05-24T03:10:43.919Z,4.37
2023-05-24T03:13:30.699Z,3.47
2023-05-24T03:16:16.428Z,3.65
2023-05-24T03:19:02.256Z,4.47
2023-05-24T03:21:47.960Z,4.16
2023-05-24T03:24:33.139Z,3.20
2023-05-24T03:27:18.870Z,4.31
2023-05-24T03:30:05.409Z,3.76
2023-05-24T03:32:55.646Z,2.88
2023-05-24T03:35:41.177Z,3.28
2023-05-24T03:38:27.729Z,3.09
2023-05-24T03:41:13.254Z,4.38
2023-05-24T03:43:59.463Z,3.73
2023-05-24T03:46:46.681Z,3.74
2023-05-24T03:49:32.017Z,3.88
2023-05-24T03:52:17.590Z,4.00
2023-05-24T03:55:02.782Z,3.82
2023-05-24T03:57:48.005Z,3.64
2023-05-24T04:00:33.819Z,3.39
2023-05-24T04:03:20.361Z,4.32
2023-05-24T04:06:07.013Z,5.00
2023-05-24T04:08:52.588Z,4.94
2023-05-24T04:11:37.972Z,4.60
2023-05-24T04:14:23.459Z,4.33
2023-05-24T04:17:09.144Z,4.39
2023-05-24T04:19:55.577Z,3.61
2023-05-24T04:22:41.483Z,4.44
2023-05-24T04:25:26.971Z,4.90
2023-05-24T04:28:13.216Z,4.25
2023-05-24T04:30:58.362Z,5.58
2023-05-24T04:33:44.051Z,5.36
2023-05-24T04:36:29.284Z,5.06
2023-05-24T04:39:14.400Z,5.46
2023-05-24T04:41:59.643Z,5.72
2023-05-24T04:44:45.053Z,5.78
2023-05-24T04:47:30.903Z,5.05
2023-05-24T04:50:16.635Z,6.04
2023-05-24T04:53:02.189Z,6.26
2023-05-24T04:55:48.319Z,6.05
2023-05-24T04:58:33.661Z,5.38
2023-05-24T05:01:20.148Z,5.91
2023-05-24T05:04:06.205Z,5.18
2023-05-24T05:06:51.898Z,5.93
2023-05-24T05:09:37.378Z,6.43
2023-05-24T05:12:22.964Z,6.31
2023-05-24T05:15:09.265Z,6.86
2023-05-24T05:17:55.189Z,6.88
2023-05-24T05:20:42.086Z,6.51
2023-05-24T05:23:28.053Z,6.18
2023-05-24T05:26:13.713Z,5.27
2023-05-24T05:28:58.813Z,5.50
2023-05-24T05:31:44.139Z,4.91
2023-05-24T05:34:29.600Z,4.78
2023-05-24T05:37:14.877Z,5.81
2023-05-24T05:39:59.999Z,5.54
2023-05-24T05:42:45.227Z,6.01
2023-05-24T05:45:31.121Z,6.32
2023-05-24T05:48:16.392Z,4.30
2023-05-24T05:51:02.018Z,5.97
2023-05-24T05:53:47.347Z,5.11
2023-05-24T05:56:32.587Z,6.40
2023-05-24T05:59:18.181Z,5.84
2023-05-24T06:02:04.680Z,6.22
2023-05-24T06:04:50.407Z,6.14
2023-05-24T06:07:35.496Z,5.03
2023-05-24T06:10:20.887Z,6.50
2023-05-24T06:13:06.584Z,6.20
2023-05-24T06:15:52.037Z,6.05
2023-05-24T06:18:37.663Z,5.00
2023-05-24T06:21:22.606Z,5.93
2023-05-24T06:24:08.349Z,6.04
2023-05-24T06:26:53.919Z,6.48
2023-05-24T06:29:39.423Z,5.51
2023-05-24T06:32:24.913Z,5.56
2023-05-24T06:35:10.631Z,4.81
2023-05-24T06:37:56.024Z,4.77
2023-05-24T06:40:41.430Z,5.78
2023-05-24T06:43:27.120Z,5.77
2023-05-24T06:46:12.852Z,5.50
2023-05-24T06:48:58.328Z,5.04
2023-05-24T06:51:45.080Z,5.45
2023-05-24T06:54:30.503Z,5.71
2023-05-24T06:57:15.759Z,5.96
2023-05-24T07:00:01.042Z,6.59
2023-05-24T07:02:46.713Z,6.16
2023-05-24T07:05:33.333Z,5.18
2023-05-24T07:08:18.772Z,5.59
2023-05-24T07:11:03.981Z,5.96
2023-05-24T07:13:49.135Z,5.74
2023-05-24T07:16:34.915Z,6.13
2023-05-24T07:19:20.846Z,6.43
2023-05-24T07:22:06.220Z,6.62
2023-05-24T07:24:51.753Z,6.98
2023-05-24T07:27:37.187Z,6.97
2023-05-24T07:30:46.624Z,7.16
2023-05-24T07:33:27.972Z,6.72
2023-05-24T07:36:14.031Z,7.70
2023-05-24T07:38:59.188Z,7.62
2023-05-24T07:41:44.957Z,7.14
2023-05-24T07:44:30.188Z,7.50
2023-05-24T07:47:15.564Z,7.42
2023-05-24T07:50:00.854Z,7.36
2023-05-24T07:52:46.343Z,7.50
2023-05-24T07:55:31.992Z,7.46
2023-05-24T07:58:17.359Z,6.38
2023-05-24T08:01:02.501Z,7.07
2023-05-24T08:03:48.142Z,7.79
2023-05-24T08:06:33.595Z,7.76
2023-05-24T08:09:19.156Z,7.02
2023-05-24T08:12:06.649Z,8.63
2023-05-24T08:14:52.759Z,7.54
2023-05-24T08:17:40.205Z,7.71
2023-05-24T08:20:26.071Z,7.95
2023-05-24T08:23:11.603Z,6.19
2023-05-24T08:25:58.113Z,7.25
2023-05-24T08:28:43.783Z,7.46
2023-05-24T08:31:29.545Z,7.76
2023-05-24T08:34:15.307Z,8.28
2023-05-24T08:37:00.386Z,8.73
2023-05-24T08:39:46.443Z,8.80
2023-05-24T08:42:31.884Z,8.75
2023-05-24T08:45:18.314Z,8.65
2023-05-24T08:48:06.401Z,9.39
2023-05-24T08:50:53.333Z,9.51
2023-05-24T08:53:39.778Z,8.85
2023-05-24T08:56:26.283Z,8.57
2023-05-24T08:59:12.525Z,6.48
2023-05-24T09:01:57.833Z,8.10
2023-05-24T09:04:46.794Z,7.37
2023-05-24T09:07:33.287Z,8.52
2023-05-24T09:10:20.732Z,9.17
2023-05-24T09:13:07.692Z,7.84
2023-05-24T09:15:53.929Z,9.01
2023-05-24T09:18:40.829Z,8.41
2023-05-24T09:21:27.419Z,7.61
2023-05-24T09:24:12.716Z,7.31
2023-05-24T09:27:05.806Z,8.82
2023-05-24T09:29:51.281Z,7.70
2023-05-24T09:32:36.917Z,8.40
2023-05-24T09:35:22.279Z,8.75
2023-05-24T09:38:17.258Z,8.61
2023-05-24T09:41:07.916Z,8.34
2023-05-24T09:43:53.146Z,9.15
2023-05-24T09:46:38.870Z,8.82
2023-05-24T09:49:24.185Z,7.80
2023-05-24T09:52:14.245Z,8.76
2023-05-24T09:55:00.351Z,8.73
2023-05-24T09:57:50.916Z,9.77
2023-05-24T10:00:41.681Z,10.38
2023-05-24T10:03:27.184Z,9.38
2023-05-24T10:06:13.311Z,10.01
2023-05-24T10:08:59.213Z,10.30
2023-05-24T10:11:45.689Z,9.54
2023-05-24T10:14:36.901Z,9.35
2023-05-24T10:17:22.415Z,9.18
2023-05-24T10:20:08.147Z,7.44
2023-05-24T10:22:59.517Z,9.21
2023-05-24T10:25:52.134Z,8.77
2023-05-24T10:28:46.888Z,9.50
2023-05-24T10:31:40.439Z,9.45
2023-05-24T10:34:26.553Z,9.01
2023-05-24T10:37:12.213Z,9.30
2023-05-24T10:39:59.192Z,8.25
2023-05-24T10:42:44.664Z,8.86
2023-05-24T10:45:33.403Z,9.37
2023-05-24T10:48:24.654Z,9.19
2023-05-24T10:51:34.787Z,9.19
2023-05-24T10:54:25.242Z,8.65
2023-05-24T10:57:10.506Z,8.95
2023-05-24T10:59:56.640Z,8.97
2023-05-24T11:02:42.332Z,9.17
2023-05-24T11:05:48.560Z,7.47
2023-05-24T11:08:35.822Z,9.19
2023-05-24T11:11:28.674Z,9.39
2023-05-24T11:14:23.384Z,9.19
2023-05-24T11:17:08.908Z,8.99
2023-05-24T11:19:55.792Z,9.82
2023-05-24T11:22:41.824Z,9.62
2023-05-24T11:25:27.698Z,10.07
2023-05-24T11:28:13.114Z,7.84
2023-05-24T11:31:08.674Z,9.34
2023-05-24T11:33:53.937Z,9.30
2023-05-24T11:36:39.496Z,7.91
2023-05-24T11:39:29.529Z,9.51
2023-05-24T11:42:15.134Z,8.26
2023-05-24T11:45:00.677Z,9.77
2023-05-24T11:47:46.002Z,9.83
2023-05-24T11:50:42.251Z,9.20
2023-05-24T11:53:34.835Z,9.16
2023-05-24T11:56:20.322Z,10.13
2023-05-24T11:59:05.879Z,10.79
2023-05-24T12:01:58.003Z,10.97
2023-05-24T12:04:43.224Z,9.90
2023-05-24T12:07:29.600Z,8.79
2023-05-24T12:10:16.019Z,10.71
2023-05-24T12:13:03.710Z,9.85
2023-05-24T12:15:53.276Z,10.90
2023-05-24T12:18:48.425Z,11.01
2023-05-24T12:21:41.324Z,11.51
2023-05-24T12:24:27.685Z,11.44
2023-05-24T12:27:12.984Z,10.37
2023-05-24T12:30:06.437Z,10.90
2023-05-24T12:32:52.038Z,11.56
2023-05-24T12:35:40.572Z,11.48
2023-05-24T12:38:26.193Z,11.02
2023-05-24T12:41:14.113Z,11.19
2023-05-24T12:43:59.856Z,10.89
2023-05-24T12:46:45.050Z,11.18
2023-05-24T12:49:31.197Z,11.35
2023-05-24T12:52:17.760Z,10.42
2023-05-24T12:55:03.277Z,10.81
2023-05-24T12:57:48.582Z,9.88
2023-05-24T13:00:33.925Z,10.85
2023-05-24T13:03:19.291Z,10.99
2023-05-24T13:06:04.991Z,9.91
2023-05-24T13:08:50.357Z,11.22
2023-05-24T13:11:36.351Z,9.76
2023-05-24T13:14:21.707Z,10.27
2023-05-24T13:17:07.388Z,10.64
2023-05-24T13:19:52.842Z,10.72
2023-05-24T13:22:39.391Z,9.52
2023-05-24T13:25:24.925Z,10.59
2023-05-24T13:28:10.146Z,9.80
2023-05-24T13:30:55.705Z,10.58
2023-05-24T13:33:43.621Z,9.67
2023-05-24T13:36:28.993Z,10.04
2023-05-24T13:39:16.546Z,9.54
2023-05-24T13:42:02.742Z,11.79
2023-05-24T13:44:48.010Z,11.16
2023-05-24T13:47:39.875Z,11.39
2023-05-24T13:50:26.359Z,11.25
2023-05-24T13:53:12.201Z,11.05
2023-05-24T13:55:57.903Z,11.36
2023-05-24T13:58:43.105Z,11.61
2023-05-24T14:01:28.887Z,11.85
2023-05-24T14:04:14.529Z,11.51
2023-05-24T14:07:00.199Z,12.17
2023-05-24T14:09:46.799Z,11.99
2023-05-24T14:12:33.181Z,12.18
2023-05-24T14:15:18.444Z,10.16
2023-05-24T14:18:03.997Z,11.97
2023-05-24T14:20:49.130Z,11.81
2023-05-24T14:23:34.650Z,11.26
2023-05-24T14:26:21.208Z,11.79
2023-05-24T14:29:06.482Z,11.36
2023-05-24T14:31:52.184Z,11.81
2023-05-24T14:34:38.031Z,11.01
2023-05-24T14:37:23.353Z,10.81
2023-05-24T14:40:11.094Z,11.73
2023-05-24T14:42:58.271Z,11.59
2023-05-24T14:45:44.149Z,11.12
2023-05-24T14:48:29.758Z,11.44
2023-05-24T14:51:16.438Z,10.42
2023-05-24T14:54:02.010Z,11.64
2023-05-24T14:56:47.307Z,12.05
2023-05-24T14:59:32.522Z,12.23
2023-05-24T15:02:19.664Z,11.62
2023-05-24T15:05:05.421Z,11.91
2023-05-24T15:07:50.909Z,12.34
2023-05-24T15:10:36.790Z,10.68
2023-05-24T15:13:23.146Z,12.19
2023-05-24T15:16:09.817Z,12.63
2023-05-24T15:18:55.347Z,12.43
2023-05-24T15:21:40.467Z,12.61
2023-05-24T15:24:26.014Z,12.58
2023-05-24T15:27:11.721Z,12.65
2023-05-24T15:29:58.341Z,12.14
2023-05-24T15:32:43.866Z,12.02
2023-05-24T15:35:29.605Z,11.70
2023-05-24T15:38:15.040Z,11.27
2023-05-24T15:41:00.376Z,11.70
2023-05-24T15:43:46.075Z,11.72
2023-05-24T15:46:32.020Z,10.55
2023-05-24T15:49:17.931Z,12.56
2023-05-24T15:52:04.981Z,12.37
2023-05-24T15:54:51.028Z,12.81
2023-05-24T15:57:36.704Z,11.88
2023-05-24T16:00:22.344Z,11.91
2023-05-24T16:03:08.144Z,12.08
2023-05-24T16:05:53.901Z,12.41
2023-05-24T16:08:39.321Z,12.51
2023-05-24T16:11:25.046Z,12.12
2023-05-24T16:14:10.588Z,12.43
2023-05-24T16:16:58.572Z,12.04
2023-05-24T16:19:44.976Z,11.51
2023-05-24T16:22:30.549Z,10.83
2023-05-24T16:25:15.961Z,12.27
2023-05-24T16:28:01.478Z,12.42
2023-05-24T16:30:47.031Z,11.07
2023-05-24T16:33:32.614Z,11.87
2023-05-24T16:36:17.860Z,10.64
2023-05-24T16:39:03.130Z,10.62
2023-05-24T16:41:48.874Z,11.76
2023-05-24T16:44:34.320Z,11.29
2023-05-24T16:47:20.244Z,10.93
2023-05-24T16:50:06.361Z,11.28
2023-05-24T16:52:52.297Z,10.77
2023-05-24T16:55:37.654Z,11.59
2023-05-24T16:58:24.725Z,11.25
2023-05-24T17:01:10.229Z,11.58
2023-05-24T17:03:56.169Z,11.11
2023-05-24T17:06:41.730Z,10.55
2023-05-24T17:09:27.202Z,10.88
2023-05-24T17:12:12.412Z,9.56
2023-05-24T17:14:58.797Z,11.14
2023-05-24T17:17:44.450Z,10.66
2023-05-24T17:20:30.304Z,11.12
2023-05-24T17:23:15.669Z,10.41
2023-05-24T17:26:01.385Z,11.41
2023-05-24T17:28:46.708Z,11.35
2023-05-24T17:31:32.276Z,11.24
2023-05-24T17:34:18.086Z,10.03
2023-05-24T17:37:03.494Z,10.11
2023-05-24T17:39:48.807Z,10.99
2023-05-24T17:42:34.095Z,11.00
2023-05-24T17:45:19.387Z,11.16
2023-05-24T17:48:05.132Z,10.71
2023-05-24T17:50:50.697Z,11.40
2023-05-24T17:53:37.546Z,10.89
2023-05-24T17:56:22.616Z,10.63
2023-05-24T17:59:08.286Z,9.91
2023-05-24T18:01:53.662Z,10.38
2023-05-24T18:04:39.112Z,10.54
2023-05-24T18:07:24.782Z,10.18
2023-05-24T18:10:10.806Z,10.41
2023-05-24T18:12:56.247Z,9.78
2023-05-24T18:15:42.326Z,9.70
2023-05-24T18:18:28.485Z,10.66
2023-05-24T18:21:13.779Z,10.58
2023-05-24T18:23:59.304Z,10.37
2023-05-24T18:26:47.234Z,10.33
2023-05-24T18:29:32.647Z,9.75
2023-05-24T18:32:18.382Z,9.32
2023-05-24T18:35:03.856Z,10.32
2023-05-24T18:37:49.811Z,9.64
2023-05-24T18:40:35.128Z,10.13
2023-05-24T18:43:20.779Z,9.00
2023-05-24T18:46:07.624Z,10.22
2023-05-24T18:48:53.586Z,9.92
2023-05-24T18:51:39.519Z,10.06
2023-05-24T18:54:25.631Z,10.48
2023-05-24T18:57:11.329Z,10.75
2023-05-24T18:59:56.822Z,10.66
2023-05-24T19:02:42.164Z,9.59
2023-05-24T19:05:28.385Z,10.12
2023-05-24T19:08:13.803Z,10.48
2023-05-24T19:10:59.511Z,9.97
2023-05-24T19:13:44.998Z,9.29
2023-05-24T19:16:31.713Z,9.34
2023-05-24T19:19:17.211Z,11.13
2023-05-24T19:22:02.838Z,10.63
2023-05-24T19:24:48.162Z,11.30
2023-05-24T19:27:36.252Z,9.98
2023-05-24T19:30:24.293Z,10.61
2023-05-24T19:33:09.904Z,10.65
2023-05-24T19:35:55.806Z,10.89
2023-05-24T19:38:41.237Z,10.75
2023-05-24T19:41:26.855Z,9.55
2023-05-24T19:44:12.116Z,9.65
2023-05-24T19:46:57.758Z,10.07
2023-05-24T19:49:43.427Z,9.33
2023-05-24T19:52:28.745Z,11.05
2023-05-24T19:55:14.156Z,10.88
2023-05-24T19:57:59.473Z,10.41
2023-05-24T20:00:45.046Z,10.83
2023-05-24T20:03:30.957Z,7.70
2023-05-24T20:06:16.923Z,9.95
2023-05-24T20:09:02.504Z,10.38
2023-05-24T20:11:48.931Z,10.04
2023-05-24T20:14:34.246Z,10.33
2023-05-24T20:17:20.136Z,9.81
2023-05-24T20:20:06.315Z,9.51
2023-05-24T20:22:52.101Z,9.86
2023-05-24T20:25:37.529Z,8.68
2023-05-24T20:28:30.759Z,9.53
2023-05-24T20:31:17.342Z,7.97
2023-05-24T20:34:03.146Z,8.78
2023-05-24T20:36:48.226Z,8.41
2023-05-24T20:39:33.873Z,9.01
2023-05-24T20:42:19.582Z,7.85
2023-05-24T20:45:05.690Z,8.76
2023-05-24T20:47:51.208Z,8.37
2023-05-24T20:50:36.927Z,7.87
2023-05-24T20:53:22.428Z,8.16
2023-05-24T20:56:07.839Z,7.84
2023-05-24T20:58:53.380Z,7.20
2023-05-24T21:01:39.085Z,6.88
2023-05-24T21:04:24.751Z,8.49
2023-05-24T21:07:10.171Z,8.78
2023-05-24T21:09:55.745Z,7.95
2023-05-24T21:12:41.294Z,8.45
2023-05-24T21:15:26.861Z,7.29
2023-05-24T21:18:12.372Z,7.48
2023-05-24T21:20:57.797Z,8.33
2023-05-24T21:23:43.281Z,6.62
2023-05-24T21:26:28.684Z,8.01
2023-05-24T21:29:14.120Z,6.35
2023-05-24T21:31:59.546Z,6.20
2023-05-24T21:34:45.117Z,7.36
2023-05-24T21:37:30.957Z,8.01
2023-05-24T21:40:16.603Z,6.46
2023-05-24T21:43:02.134Z,7.52
2023-05-24T21:45:47.618Z,7.72
2023-05-24T21:48:33.213Z,6.25
2023-05-24T21:51:18.822Z,7.31
2023-05-24T21:54:04.441Z,8.10
2023-05-24T21:56:49.821Z,6.52
2023-05-24T21:59:36.067Z,6.35
2023-05-24T22:02:22.070Z,7.76
2023-05-24T22:05:07.866Z,7.44
2023-05-24T22:07:53.227Z,6.29
2023-05-24T22:10:38.646Z,7.20
2023-05-24T22:13:24.222Z,6.16
2023-05-24T22:16:09.512Z,5.79
2023-05-24T22:18:55.772Z,7.50
2023-05-24T22:21:41.401Z,7.15
2023-05-24T22:24:27.270Z,7.09
2023-05-24T22:27:13.304Z,6.56
2023-05-24T22:29:58.761Z,6.84
2023-05-24T22:32:44.465Z,7.30
2023-05-24T22:35:30.196Z,7.05
2023-05-24T22:38:15.923Z,4.98
2023-05-24T22:41:01.631Z,6.07
2023-05-24T22:43:46.931Z,6.89
2023-05-24T22:46:32.680Z,6.14
2023-05-24T22:49:18.191Z,5.86
2023-05-24T22:52:03.571Z,6.40
2023-05-24T22:54:48.741Z,6.76
2023-05-24T22:57:34.330Z,6.06
2023-05-24T23:00:20.403Z,6.44
2023-05-24T23:03:07.853Z,6.42
2023-05-24T23:05:53.249Z,6.51
2023-05-24T23:08:39.253Z,6.60
2023-05-24T23:11:24.934Z,6.35
2023-05-24T23:14:10.665Z,5.78
2023-05-24T23:16:56.972Z,5.44
2023-05-24T23:19:43.076Z,6.44
2023-05-24T23:22:28.528Z,4.77
2023-05-24T23:25:13.948Z,6.47
2023-05-24T23:28:00.555Z,5.29
2023-05-24T23:30:46.378Z,6.36
2023-05-24T23:33:31.720Z,5.02
2023-05-24T23:36:17.645Z,4.73
2023-05-24T23:39:02.843Z,5.07
2023-05-24T23:41:48.243Z,6.01
2023-05-24T23:44:33.375Z,6.38
2023-05-24T23:47:18.860Z,6.24
2023-05-24T23:50:04.857Z,5.03
2023-05-24T23:52:50.718Z,6.00
2023-05-24T23:55:36.077Z,5.57
2023-05-24T23:58:21.760Z,4.87
